sensor_id;sensor_type;location;lat;lon;timestamp;P1;durP1;ratioP1;P2;durP2;ratioP2
59024;SDS011;44806;48.008;13.666;2022-09-06T00:00:14;72.47;;;36.30;;
59024;SDS011;44806;48.008;13.666;2022-09-06T00:02:43;94.78;;;34.90;;
59024;SDS011;44806;48.008;13.666;2022-09-06T00:05:11;85.63;;;40.50;;
59024;SDS011;44806;48.008;13.666;2022-09-06T00:07:39;48.88;;;29.80;;
59024;SDS011;44806;48.008;13.666;2022-09-06T00:10:07;109.53;;;39.15;;
59024;SDS011;44806;48.008;13.666;2022-09-06T00:12:35;72.70;;;35.20;;
59024;SDS011;44806;48.008;13.666;2022-09-06T00:15:04;85.20;;;35.22;;
59024;SDS011;44806;48.008;13.666;2022-09-06T00:17:34;76.88;;;36.85;;
59024;SDS011;44806;48.008;13.666;2022-09-06T00:20:02;85.28;;;36.30;;
59024;SDS011;44806;48.008;13.666;2022-09-06T00:22:33;83.82;;;54.50;;
59024;SDS011;44806;48.008;13.666;2022-09-06T00:25:01;59.65;;;39.58;;
59024;SDS011;44806;48.008;13.666;2022-09-06T00:27:30;90.13;;;34.38;;
59024;SDS011;44806;48.008;13.666;2022-09-06T00:29:58;90.15;;;33.20;;
59024;SDS011;44806;48.008;13.666;2022-09-06T00:32:28;87.07;;;34.97;;
59024;SDS011;44806;48.008;13.666;2022-09-06T00:34:58;85.38;;;50.83;;
59024;SDS011;44806;48.008;13.666;2022-09-06T00:37:28;104.70;;;36.55;;
59024;SDS011;44806;48.008;13.666;2022-09-06T00:39:55;68.97;;;33.25;;
59024;SDS011;44806;48.008;13.666;2022-09-06T00:42:22;86.25;;;36.20;;
59024;SDS011;44806;48.008;13.666;2022-09-06T00:44:50;51.05;;;24.73;;
59024;SDS011;44806;48.008;13.666;2022-09-06T00:47:19;73.53;;;29.65;;
59024;SDS011;44806;48.008;13.666;2022-09-06T00:49:48;119.57;;;37.80;;
59024;SDS011;44806;48.008;13.666;2022-09-06T00:52:21;74.20;;;41.70;;
59024;SDS011;44806;48.008;13.666;2022-09-06T00:54:53;64.55;;;37.33;;
59024;SDS011;44806;48.008;13.666;2022-09-06T00:57:21;74.40;;;43.40;;
59024;SDS011;44806;48.008;13.666;2022-09-06T00:59:57;140.80;;;74.75;;
59024;SDS011;44806;48.008;13.666;2022-09-06T01:02:26;64.53;;;38.00;;
59024;SDS011;44806;48.008;13.666;2022-09-06T01:04:53;89.97;;;49.75;;
59024;SDS011;44806;48.008;13.666;2022-09-06T01:07:30;152.43;;;72.13;;
59024;SDS011;44806;48.008;13.666;2022-09-06T01:10:17;92.90;;;47.95;;
59024;SDS011;44806;48.008;13.666;2022-09-06T01:13:08;167.88;;;80.35;;
59024;SDS011;44806;48.008;13.666;2022-09-06T01:15:50;70.72;;;34.63;;
59024;SDS011;44806;48.008;13.666;2022-09-06T01:18:27;176.93;;;78.72;;
59024;SDS011;44806;48.008;13.666;2022-09-06T01:21:11;60.45;;;33.85;;
59024;SDS011;44806;48.008;13.666;2022-09-06T01:23:58;93.05;;;37.53;;
59024;SDS011;44806;48.008;13.666;2022-09-06T01:29:39;49.55;;;24.42;;
59024;SDS011;44806;48.008;13.666;2022-09-06T01:32:14;50.95;;;23.33;;
59024;SDS011;44806;48.008;13.666;2022-09-06T01:34:49;53.95;;;23.58;;
59024;SDS011;44806;48.008;13.666;2022-09-06T01:37:22;64.20;;;28.92;;
59024;SDS011;44806;48.008;13.666;2022-09-06T01:39:50;47.30;;;28.63;;
59024;SDS011;44806;48.008;13.666;2022-09-06T01:42:20;32.80;;;19.63;;
59024;SDS011;44806;48.008;13.666;2022-09-06T01:44:55;42.63;;;22.65;;
59024;SDS011;44806;48.008;13.666;2022-09-06T01:47:33;42.15;;;22.73;;
59024;SDS011;44806;48.008;13.666;2022-09-06T01:50:22;62.30;;;31.63;;
59024;SDS011;44806;48.008;13.666;2022-09-06T01:53:03;76.82;;;32.38;;
59024;SDS011;44806;48.008;13.666;2022-09-06T01:55:42;41.20;;;24.65;;
59024;SDS011;44806;48.008;13.666;2022-09-06T01:58:23;38.47;;;26.05;;
59024;SDS011;44806;48.008;13.666;2022-09-06T02:01:06;55.85;;;29.67;;
59024;SDS011;44806;48.008;13.666;2022-09-06T02:03:42;67.43;;;34.22;;
59024;SDS011;44806;48.008;13.666;2022-09-06T02:06:19;62.28;;;29.30;;
59024;SDS011;44806;48.008;13.666;2022-09-06T02:08:52;64.22;;;30.48;;
59024;SDS011;44806;48.008;13.666;2022-09-06T02:11:22;50.35;;;26.33;;
59024;SDS011;44806;48.008;13.666;2022-09-06T02:13:53;36.97;;;27.42;;
59024;SDS011;44806;48.008;13.666;2022-09-06T02:16:25;34.60;;;18.55;;
59024;SDS011;44806;48.008;13.666;2022-09-06T02:18:58;35.60;;;20.10;;
59024;SDS011;44806;48.008;13.666;2022-09-06T02:21:30;47.40;;;27.15;;
59024;SDS011;44806;48.008;13.666;2022-09-06T02:24:01;72.82;;;35.00;;
59024;SDS011;44806;48.008;13.666;2022-09-06T02:26:31;39.15;;;22.80;;
59024;SDS011;44806;48.008;13.666;2022-09-06T02:29:02;40.47;;;21.30;;
59024;SDS011;44806;48.008;13.666;2022-09-06T02:31:32;50.85;;;28.20;;
59024;SDS011;44806;48.008;13.666;2022-09-06T02:34:03;80.10;;;35.95;;
59024;SDS011;44806;48.008;13.666;2022-09-06T02:36:31;66.38;;;30.65;;
59024;SDS011;44806;48.008;13.666;2022-09-06T02:39:01;66.35;;;28.73;;
59024;SDS011;44806;48.008;13.666;2022-09-06T02:41:28;63.88;;;31.73;;
59024;SDS011;44806;48.008;13.666;2022-09-06T02:43:57;63.08;;;30.38;;
59024;SDS011;44806;48.008;13.666;2022-09-06T02:46:24;46.53;;;21.67;;
59024;SDS011;44806;48.008;13.666;2022-09-06T02:48:53;46.53;;;24.85;;
59024;SDS011;44806;48.008;13.666;2022-09-06T02:51:21;46.22;;;25.77;;
59024;SDS011;44806;48.008;13.666;2022-09-06T02:53:49;40.85;;;22.88;;
59024;SDS011;44806;48.008;13.666;2022-09-06T02:56:17;64.72;;;31.27;;
59024;SDS011;44806;48.008;13.666;2022-09-06T02:58:44;49.65;;;28.40;;
59024;SDS011;44806;48.008;13.666;2022-09-06T03:01:11;34.65;;;18.60;;
59024;SDS011;44806;48.008;13.666;2022-09-06T03:03:39;38.25;;;20.48;;
59024;SDS011;44806;48.008;13.666;2022-09-06T03:06:08;28.67;;;20.27;;
59024;SDS011;44806;48.008;13.666;2022-09-06T03:08:38;49.33;;;22.55;;
59024;SDS011;44806;48.008;13.666;2022-09-06T03:11:05;44.90;;;24.58;;
59024;SDS011;44806;48.008;13.666;2022-09-06T03:13:33;60.25;;;26.20;;
59024;SDS011;44806;48.008;13.666;2022-09-06T03:16:00;38.60;;;20.50;;
59024;SDS011;44806;48.008;13.666;2022-09-06T03:18:29;40.28;;;18.38;;
59024;SDS011;44806;48.008;13.666;2022-09-06T03:20:59;53.83;;;24.17;;
59024;SDS011;44806;48.008;13.666;2022-09-06T03:23:28;56.88;;;30.00;;
59024;SDS011;44806;48.008;13.666;2022-09-06T03:25:55;62.88;;;32.58;;
59024;SDS011;44806;48.008;13.666;2022-09-06T03:28:23;62.58;;;33.60;;
59024;SDS011;44806;48.008;13.666;2022-09-06T03:30:50;36.97;;;23.10;;
59024;SDS011;44806;48.008;13.666;2022-09-06T03:33:18;50.70;;;29.60;;
59024;SDS011;44806;48.008;13.666;2022-09-06T03:35:47;32.55;;;22.90;;
59024;SDS011;44806;48.008;13.666;2022-09-06T03:38:15;76.07;;;35.35;;
59024;SDS011;44806;48.008;13.666;2022-09-06T03:40:44;69.00;;;32.47;;
59024;SDS011;44806;48.008;13.666;2022-09-06T03:43:12;80.32;;;35.10;;
59024;SDS011;44806;48.008;13.666;2022-09-06T03:45:43;58.15;;;29.30;;
59024;SDS011;44806;48.008;13.666;2022-09-06T03:48:19;64.07;;;31.70;;
59024;SDS011;44806;48.008;13.666;2022-09-06T03:50:49;77.32;;;28.38;;
59024;SDS011;44806;48.008;13.666;2022-09-06T03:53:17;80.15;;;37.13;;
59024;SDS011;44806;48.008;13.666;2022-09-06T03:55:47;32.22;;;23.05;;
59024;SDS011;44806;48.008;13.666;2022-09-06T03:58:17;51.30;;;26.35;;
59024;SDS011;44806;48.008;13.666;2022-09-06T04:00:46;60.13;;;29.33;;
59024;SDS011;44806;48.008;13.666;2022-09-06T04:03:14;32.38;;;20.92;;
59024;SDS011;44806;48.008;13.666;2022-09-06T04:05:44;45.22;;;25.25;;
59024;SDS011;44806;48.008;13.666;2022-09-06T04:08:12;46.33;;;27.08;;
59024;SDS011;44806;48.008;13.666;2022-09-06T04:10:39;29.75;;;17.80;;
59024;SDS011;44806;48.008;13.666;2022-09-06T04:13:08;49.97;;;31.02;;
59024;SDS011;44806;48.008;13.666;2022-09-06T04:15:35;62.20;;;29.98;;
59024;SDS011;44806;48.008;13.666;2022-09-06T04:18:02;34.15;;;22.70;;
59024;SDS011;44806;48.008;13.666;2022-09-06T04:20:30;38.63;;;18.13;;
59024;SDS011;44806;48.008;13.666;2022-09-06T04:22:57;30.55;;;21.73;;
59024;SDS011;44806;48.008;13.666;2022-09-06T04:25:26;42.13;;;22.67;;
59024;SDS011;44806;48.008;13.666;2022-09-06T04:27:53;28.88;;;20.83;;
59024;SDS011;44806;48.008;13.666;2022-09-06T04:30:23;42.22;;;26.15;;
59024;SDS011;44806;48.008;13.666;2022-09-06T04:32:50;50.15;;;24.15;;
59024;SDS011;44806;48.008;13.666;2022-09-06T04:35:18;55.92;;;30.35;;
59024;SDS011;44806;48.008;13.666;2022-09-06T04:37:48;66.35;;;32.80;;
59024;SDS011;44806;48.008;13.666;2022-09-06T04:40:15;83.32;;;38.60;;
59024;SDS011;44806;48.008;13.666;2022-09-06T04:42:43;39.08;;;25.80;;
59024;SDS011;44806;48.008;13.666;2022-09-06T04:45:11;40.35;;;21.58;;
59024;SDS011;44806;48.008;13.666;2022-09-06T04:47:40;62.60;;;29.05;;
59024;SDS011;44806;48.008;13.666;2022-09-06T04:50:10;36.85;;;24.98;;
59024;SDS011;44806;48.008;13.666;2022-09-06T04:52:38;43.08;;;27.02;;
59024;SDS011;44806;48.008;13.666;2022-09-06T04:55:05;52.75;;;24.80;;
59024;SDS011;44806;48.008;13.666;2022-09-06T04:57:33;50.22;;;25.27;;
59024;SDS011;44806;48.008;13.666;2022-09-06T05:00:01;57.90;;;30.42;;
59024;SDS011;44806;48.008;13.666;2022-09-06T05:02:31;60.40;;;26.27;;
59024;SDS011;44806;48.008;13.666;2022-09-06T05:05:00;41.28;;;20.83;;
59024;SDS011;44806;48.008;13.666;2022-09-06T05:07:29;31.70;;;19.58;;
59024;SDS011;44806;48.008;13.666;2022-09-06T05:09:56;27.42;;;20.30;;
59024;SDS011;44806;48.008;13.666;2022-09-06T05:12:26;66.60;;;31.27;;
59024;SDS011;44806;48.008;13.666;2022-09-06T05:14:54;37.15;;;19.95;;
59024;SDS011;44806;48.008;13.666;2022-09-06T05:17:21;58.70;;;31.60;;
59024;SDS011;44806;48.008;13.666;2022-09-06T05:19:48;60.85;;;31.95;;
59024;SDS011;44806;48.008;13.666;2022-09-06T05:22:17;90.32;;;37.00;;
59024;SDS011;44806;48.008;13.666;2022-09-06T05:24:44;40.45;;;23.42;;
59024;SDS011;44806;48.008;13.666;2022-09-06T05:27:12;39.00;;;18.17;;
59024;SDS011;44806;48.008;13.666;2022-09-06T05:29:40;58.03;;;33.67;;
59024;SDS011;44806;48.008;13.666;2022-09-06T05:32:09;69.22;;;29.92;;
59024;SDS011;44806;48.008;13.666;2022-09-06T05:34:37;52.55;;;28.40;;
59024;SDS011;44806;48.008;13.666;2022-09-06T05:37:06;50.33;;;29.42;;
59024;SDS011;44806;48.008;13.666;2022-09-06T05:39:35;71.18;;;32.38;;
59024;SDS011;44806;48.008;13.666;2022-09-06T05:42:07;43.97;;;25.15;;
59024;SDS011;44806;48.008;13.666;2022-09-06T05:44:35;64.47;;;26.30;;
59024;SDS011;44806;48.008;13.666;2022-09-06T05:47:03;56.13;;;25.88;;
59024;SDS011;44806;48.008;13.666;2022-09-06T05:49:30;76.43;;;35.63;;
59024;SDS011;44806;48.008;13.666;2022-09-06T05:51:58;87.03;;;37.60;;
59024;SDS011;44806;48.008;13.666;2022-09-06T05:54:25;60.17;;;29.60;;
59024;SDS011;44806;48.008;13.666;2022-09-06T05:56:54;40.78;;;26.33;;
59024;SDS011;44806;48.008;13.666;2022-09-06T05:59:21;61.15;;;32.85;;
59024;SDS011;44806;48.008;13.666;2022-09-06T06:01:49;86.88;;;36.55;;
59024;SDS011;44806;48.008;13.666;2022-09-06T06:04:20;83.57;;;35.67;;
59024;SDS011;44806;48.008;13.666;2022-09-06T06:06:48;89.75;;;36.17;;
59024;SDS011;44806;48.008;13.666;2022-09-06T06:09:15;48.40;;;31.27;;
59024;SDS011;44806;48.008;13.666;2022-09-06T06:11:43;41.30;;;22.75;;
59024;SDS011;44806;48.008;13.666;2022-09-06T06:14:12;84.05;;;36.47;;
59024;SDS011;44806;48.008;13.666;2022-09-06T06:16:39;47.42;;;25.77;;
59024;SDS011;44806;48.008;13.666;2022-09-06T06:19:08;74.97;;;34.40;;
59024;SDS011;44806;48.008;13.666;2022-09-06T06:21:35;44.17;;;23.95;;
59024;SDS011;44806;48.008;13.666;2022-09-06T06:24:03;37.85;;;18.73;;
59024;SDS011;44806;48.008;13.666;2022-09-06T06:26:32;38.17;;;21.05;;
59024;SDS011;44806;48.008;13.666;2022-09-06T06:29:00;89.97;;;40.28;;
59024;SDS011;44806;48.008;13.666;2022-09-06T06:31:29;88.97;;;38.75;;
59024;SDS011;44806;48.008;13.666;2022-09-06T06:33:57;87.05;;;37.78;;
59024;SDS011;44806;48.008;13.666;2022-09-06T06:36:27;105.47;;;45.63;;
59024;SDS011;44806;48.008;13.666;2022-09-06T06:38:56;70.60;;;34.60;;
59024;SDS011;44806;48.008;13.666;2022-09-06T06:41:27;63.13;;;34.10;;
59024;SDS011;44806;48.008;13.666;2022-09-06T06:43:56;91.57;;;43.08;;
59024;SDS011;44806;48.008;13.666;2022-09-06T06:46:26;81.70;;;41.58;;
59024;SDS011;44806;48.008;13.666;2022-09-06T06:48:57;58.25;;;35.65;;
59024;SDS011;44806;48.008;13.666;2022-09-06T06:51:25;186.70;;;86.40;;
59024;SDS011;44806;48.008;13.666;2022-09-06T06:53:53;56.53;;;31.95;;
59024;SDS011;44806;48.008;13.666;2022-09-06T06:56:22;175.07;;;76.97;;
59024;SDS011;44806;48.008;13.666;2022-09-06T06:58:51;78.47;;;36.10;;
59024;SDS011;44806;48.008;13.666;2022-09-06T07:01:21;188.40;;;75.88;;
59024;SDS011;44806;48.008;13.666;2022-09-06T07:03:56;58.38;;;30.60;;
59024;SDS011;44806;48.008;13.666;2022-09-06T07:06:24;72.40;;;38.45;;
59024;SDS011;44806;48.008;13.666;2022-09-06T07:08:56;85.82;;;40.20;;
59024;SDS011;44806;48.008;13.666;2022-09-06T07:11:24;157.85;;;68.78;;
59024;SDS011;44806;48.008;13.666;2022-09-06T07:13:52;64.05;;;35.08;;
59024;SDS011;44806;48.008;13.666;2022-09-06T07:16:20;173.68;;;78.55;;
59024;SDS011;44806;48.008;13.666;2022-09-06T07:18:49;139.70;;;68.72;;
59024;SDS011;44806;48.008;13.666;2022-09-06T07:21:21;187.73;;;86.60;;
59024;SDS011;44806;48.008;13.666;2022-09-06T07:23:51;152.43;;;82.05;;
59024;SDS011;44806;48.008;13.666;2022-09-06T07:26:20;166.50;;;83.65;;
59024;SDS011;44806;48.008;13.666;2022-09-06T07:28:50;99.68;;;43.67;;
59024;SDS011;44806;48.008;13.666;2022-09-06T07:31:18;84.25;;;34.13;;
59024;SDS011;44806;48.008;13.666;2022-09-06T07:33:45;103.65;;;42.67;;
59024;SDS011;44806;48.008;13.666;2022-09-06T07:36:16;104.85;;;44.50;;
59024;SDS011;44806;48.008;13.666;2022-09-06T07:38:47;291.80;;;76.15;;
59024;SDS011;44806;48.008;13.666;2022-09-06T07:41:16;100.75;;;35.38;;
59024;SDS011;44806;48.008;13.666;2022-09-06T07:43:44;234.02;;;87.03;;
59024;SDS011;44806;48.008;13.666;2022-09-06T07:46:12;89.63;;;45.35;;
59024;SDS011;44806;48.008;13.666;2022-09-06T07:48:41;107.75;;;38.20;;
59024;SDS011;44806;48.008;13.666;2022-09-06T07:51:12;345.77;;;98.20;;
59024;SDS011;44806;48.008;13.666;2022-09-06T07:53:43;359.70;;;106.10;;
59024;SDS011;44806;48.008;13.666;2022-09-06T07:56:14;331.73;;;98.22;;
59024;SDS011;44806;48.008;13.666;2022-09-06T07:58:42;79.90;;;34.55;;
59024;SDS011;44806;48.008;13.666;2022-09-06T08:01:17;148.68;;;60.50;;
59024;SDS011;44806;48.008;13.666;2022-09-06T08:03:51;350.17;;;110.15;;
59024;SDS011;44806;48.008;13.666;2022-09-06T08:06:19;310.17;;;95.88;;
59024;SDS011;44806;48.008;13.666;2022-09-06T08:08:49;386.08;;;123.22;;
59024;SDS011;44806;48.008;13.666;2022-09-06T08:11:17;403.40;;;127.85;;
59024;SDS011;44806;48.008;13.666;2022-09-06T08:13:47;366.60;;;115.35;;
59024;SDS011;44806;48.008;13.666;2022-09-06T08:16:16;408.33;;;130.60;;
59024;SDS011;44806;48.008;13.666;2022-09-06T08:18:44;337.88;;;118.60;;
59024;SDS011;44806;48.008;13.666;2022-09-06T08:21:15;395.85;;;124.28;;
59024;SDS011;44806;48.008;13.666;2022-09-06T08:23:44;413.02;;;117.63;;
59024;SDS011;44806;48.008;13.666;2022-09-06T08:26:14;360.88;;;123.20;;
59024;SDS011;44806;48.008;13.666;2022-09-06T08:28:46;431.65;;;119.93;;
59024;SDS011;44806;48.008;13.666;2022-09-06T08:31:17;403.13;;;108.22;;
59024;SDS011;44806;48.008;13.666;2022-09-06T08:33:45;462.35;;;152.43;;
59024;SDS011;44806;48.008;13.666;2022-09-06T08:36:14;517.35;;;148.68;;
59024;SDS011;44806;48.008;13.666;2022-09-06T08:38:42;489.23;;;132.68;;
59024;SDS011;44806;48.008;13.666;2022-09-06T08:41:18;308.50;;;91.68;;
59024;SDS011;44806;48.008;13.666;2022-09-06T08:43:52;419.67;;;124.80;;
59024;SDS011;44806;48.008;13.666;2022-09-06T08:46:21;464.38;;;143.18;;
59024;SDS011;44806;48.008;13.666;2022-09-06T08:48:54;1167.63;;;306.90;;
59024;SDS011;44806;48.008;13.666;2022-09-06T08:51:30;419.80;;;110.70;;
59024;SDS011;44806;48.008;13.666;2022-09-06T08:56:44;435.88;;;128.50;;
59024;SDS011;44806;48.008;13.666;2022-09-06T08:59:23;502.35;;;149.93;;
59024;SDS011;44806;48.008;13.666;2022-09-06T09:01:52;589.78;;;175.73;;
59024;SDS011;44806;48.008;13.666;2022-09-06T09:04:26;484.48;;;147.95;;
59024;SDS011;44806;48.008;13.666;2022-09-06T09:06:57;543.17;;;164.07;;
59024;SDS011;44806;48.008;13.666;2022-09-06T09:09:30;1999.90;;;649.72;;
59024;SDS011;44806;48.008;13.666;2022-09-06T09:12:01;399.42;;;100.07;;
59024;SDS011;44806;48.008;13.666;2022-09-06T09:14:29;417.40;;;135.35;;
59024;SDS011;44806;48.008;13.666;2022-09-06T09:17:01;425.20;;;126.22;;
59024;SDS011;44806;48.008;13.666;2022-09-06T09:19:31;1999.90;;;631.88;;
59024;SDS011;44806;48.008;13.666;2022-09-06T09:22:01;542.67;;;161.90;;
59024;SDS011;44806;48.008;13.666;2022-09-06T09:24:29;1999.90;;;621.15;;
59024;SDS011;44806;48.008;13.666;2022-09-06T09:27:03;608.20;;;178.65;;
59024;SDS011;44806;48.008;13.666;2022-09-06T09:29:42;1999.90;;;647.30;;
59024;SDS011;44806;48.008;13.666;2022-09-06T09:32:28;1215.47;;;331.58;;
59024;SDS011;44806;48.008;13.666;2022-09-06T09:37:59;1154.40;;;348.87;;
59024;SDS011;44806;48.008;13.666;2022-09-06T09:40:32;1999.90;;;641.50;;
59024;SDS011;44806;48.008;13.666;2022-09-06T09:43:18;1999.90;;;641.92;;
59024;SDS011;44806;48.008;13.666;2022-09-06T09:45:56;1999.90;;;682.85;;
59024;SDS011;44806;48.008;13.666;2022-09-06T09:49:01;856.78;;;241.45;;
59024;SDS011;44806;48.008;13.666;2022-09-06T09:51:31;1999.90;;;650.70;;
59024;SDS011;44806;48.008;13.666;2022-09-06T09:54:03;1999.90;;;635.40;;
59024;SDS011;44806;48.008;13.666;2022-09-06T09:56:42;1999.90;;;633.53;;
59024;SDS011;44806;48.008;13.666;2022-09-06T09:59:24;1999.90;;;689.88;;
59024;SDS011;44806;48.008;13.666;2022-09-06T10:01:54;1999.90;;;646.53;;
59024;SDS011;44806;48.008;13.666;2022-09-06T10:04:27;1999.90;;;608.97;;
59024;SDS011;44806;48.008;13.666;2022-09-06T10:07:06;544.97;;;155.43;;
59024;SDS011;44806;48.008;13.666;2022-09-06T10:09:35;1999.90;;;632.90;;
59024;SDS011;44806;48.008;13.666;2022-09-06T10:12:05;1999.90;;;571.35;;
59024;SDS011;44806;48.008;13.666;2022-09-06T10:14:41;1999.90;;;655.10;;
59024;SDS011;44806;48.008;13.666;2022-09-06T10:17:18;1999.90;;;680.95;;
59024;SDS011;44806;48.008;13.666;2022-09-06T10:19:47;1999.90;;;672.13;;
59024;SDS011;44806;48.008;13.666;2022-09-06T10:22:22;1999.90;;;592.17;;
59024;SDS011;44806;48.008;13.666;2022-09-06T10:24:58;1999.90;;;667.78;;
59024;SDS011;44806;48.008;13.666;2022-09-06T10:27:57;1999.90;;;596.15;;
59024;SDS011;44806;48.008;13.666;2022-09-06T10:30:46;1999.90;;;627.78;;
59024;SDS011;44806;48.008;13.666;2022-09-06T10:33:29;1999.90;;;599.90;;
59024;SDS011;44806;48.008;13.666;2022-09-06T10:36:03;1999.90;;;642.80;;
59024;SDS011;44806;48.008;13.666;2022-09-06T10:38:35;1999.90;;;676.53;;
59024;SDS011;44806;48.008;13.666;2022-09-06T10:41:20;1999.90;;;608.33;;
59024;SDS011;44806;48.008;13.666;2022-09-06T10:44:10;1999.90;;;605.65;;
59024;SDS011;44806;48.008;13.666;2022-09-06T10:46:54;1999.90;;;594.53;;
59024;SDS011;44806;48.008;13.666;2022-09-06T10:49:28;1999.90;;;636.90;;
59024;SDS011;44806;48.008;13.666;2022-09-06T10:52:00;1999.90;;;656.10;;
59024;SDS011;44806;48.008;13.666;2022-09-06T10:54:31;1999.90;;;672.83;;
59024;SDS011;44806;48.008;13.666;2022-09-06T10:57:02;1999.90;;;653.38;;
59024;SDS011;44806;48.008;13.666;2022-09-06T10:59:37;1999.90;;;679.85;;
59024;SDS011;44806;48.008;13.666;2022-09-06T11:02:11;1999.90;;;641.90;;
59024;SDS011;44806;48.008;13.666;2022-09-06T11:04:45;1999.90;;;652.37;;
59024;SDS011;44806;48.008;13.666;2022-09-06T11:07:14;1999.90;;;622.35;;
59024;SDS011;44806;48.008;13.666;2022-09-06T11:09:53;1999.90;;;660.00;;
59024;SDS011;44806;48.008;13.666;2022-09-06T11:12:26;1999.90;;;635.40;;
59024;SDS011;44806;48.008;13.666;2022-09-06T11:15:02;1999.90;;;708.55;;
59024;SDS011;44806;48.008;13.666;2022-09-06T11:17:34;1999.90;;;670.95;;
59024;SDS011;44806;48.008;13.666;2022-09-06T11:20:07;1996.95;;;581.80;;
59024;SDS011;44806;48.008;13.666;2022-09-06T11:22:50;1999.90;;;643.67;;
59024;SDS011;44806;48.008;13.666;2022-09-06T11:25:49;1999.90;;;685.00;;
59024;SDS011;44806;48.008;13.666;2022-09-06T11:28:51;1999.90;;;693.55;;
59024;SDS011;44806;48.008;13.666;2022-09-06T11:31:21;1999.90;;;661.83;;
59024;SDS011;44806;48.008;13.666;2022-09-06T11:34:05;1999.90;;;693.28;;
59024;SDS011;44806;48.008;13.666;2022-09-06T11:36:36;1999.90;;;621.63;;
59024;SDS011;44806;48.008;13.666;2022-09-06T11:39:05;1999.90;;;665.38;;
59024;SDS011;44806;48.008;13.666;2022-09-06T11:41:35;1999.90;;;679.72;;
59024;SDS011;44806;48.008;13.666;2022-09-06T11:44:05;1999.90;;;668.22;;
59024;SDS011;44806;48.008;13.666;2022-09-06T11:49:37;1999.90;;;696.78;;
59024;SDS011;44806;48.008;13.666;2022-09-06T11:55:23;1999.90;;;696.00;;
59024;SDS011;44806;48.008;13.666;2022-09-06T11:58:04;1999.90;;;660.08;;
59024;SDS011;44806;48.008;13.666;2022-09-06T12:00:37;1999.90;;;630.67;;
59024;SDS011;44806;48.008;13.666;2022-09-06T12:03:06;1999.90;;;662.88;;
59024;SDS011;44806;48.008;13.666;2022-09-06T12:08:36;1999.90;;;626.33;;
59024;SDS011;44806;48.008;13.666;2022-09-06T12:11:05;1999.90;;;675.22;;
59024;SDS011;44806;48.008;13.666;2022-09-06T12:13:57;1999.90;;;596.33;;
59024;SDS011;44806;48.008;13.666;2022-09-06T12:19:55;1999.90;;;684.92;;
59024;SDS011;44806;48.008;13.666;2022-09-06T12:28:29;1999.90;;;655.28;;
59024;SDS011;44806;48.008;13.666;2022-09-06T12:31:22;1999.90;;;646.63;;
59024;SDS011;44806;48.008;13.666;2022-09-06T12:33:53;1988.40;;;631.90;;
59024;SDS011;44806;48.008;13.666;2022-09-06T12:36:22;1947.28;;;665.40;;
59024;SDS011;44806;48.008;13.666;2022-09-06T12:38:54;1986.97;;;628.58;;
59024;SDS011;44806;48.008;13.666;2022-09-06T12:41:24;1998.25;;;637.35;;
59024;SDS011;44806;48.008;13.666;2022-09-06T12:43:53;1959.55;;;609.65;;
59024;SDS011;44806;48.008;13.666;2022-09-06T12:46:22;1999.90;;;653.60;;
59024;SDS011;44806;48.008;13.666;2022-09-06T12:49:00;1924.40;;;585.42;;
59024;SDS011;44806;48.008;13.666;2022-09-06T12:51:32;1997.43;;;771.83;;
59024;SDS011;44806;48.008;13.666;2022-09-06T12:54:03;1999.90;;;628.38;;
59024;SDS011;44806;48.008;13.666;2022-09-06T12:56:33;1999.38;;;633.38;;
59024;SDS011;44806;48.008;13.666;2022-09-06T12:59:17;1999.90;;;624.05;;
59024;SDS011;44806;48.008;13.666;2022-09-06T13:01:48;1966.70;;;673.92;;
59024;SDS011;44806;48.008;13.666;2022-09-06T13:04:24;1999.90;;;658.80;;
59024;SDS011;44806;48.008;13.666;2022-09-06T13:06:57;1999.90;;;624.15;;
59024;SDS011;44806;48.008;13.666;2022-09-06T13:09:27;1999.90;;;652.17;;
59024;SDS011;44806;48.008;13.666;2022-09-06T13:11:58;1999.90;;;634.25;;
59024;SDS011;44806;48.008;13.666;2022-09-06T13:14:32;1999.90;;;731.70;;
59024;SDS011;44806;48.008;13.666;2022-09-06T13:17:01;1999.90;;;633.70;;
59024;SDS011;44806;48.008;13.666;2022-09-06T13:19:29;1999.90;;;617.10;;
59024;SDS011;44806;48.008;13.666;2022-09-06T13:21:59;1999.90;;;671.35;;
59024;SDS011;44806;48.008;13.666;2022-09-06T13:24:37;1994.22;;;633.80;;
59024;SDS011;44806;48.008;13.666;2022-09-06T13:27:25;1999.90;;;646.92;;
59024;SDS011;44806;48.008;13.666;2022-09-06T13:29:59;1997.57;;;692.95;;
59024;SDS011;44806;48.008;13.666;2022-09-06T13:32:27;1999.90;;;697.60;;
59024;SDS011;44806;48.008;13.666;2022-09-06T13:34:56;1999.90;;;692.00;;
59024;SDS011;44806;48.008;13.666;2022-09-06T13:37:27;1992.05;;;662.55;;
59024;SDS011;44806;48.008;13.666;2022-09-06T13:39:57;1999.90;;;709.25;;
59024;SDS011;44806;48.008;13.666;2022-09-06T13:42:33;1999.90;;;669.15;;
59024;SDS011;44806;48.008;13.666;2022-09-06T13:45:14;1999.90;;;688.13;;
59024;SDS011;44806;48.008;13.666;2022-09-06T13:47:47;1996.63;;;672.60;;
59024;SDS011;44806;48.008;13.666;2022-09-06T13:50:15;1994.15;;;623.00;;
59024;SDS011;44806;48.008;13.666;2022-09-06T13:52:42;1999.90;;;649.42;;
59024;SDS011;44806;48.008;13.666;2022-09-06T13:55:10;1999.90;;;644.72;;
59024;SDS011;44806;48.008;13.666;2022-09-06T13:57:43;1995.40;;;707.58;;
59024;SDS011;44806;48.008;13.666;2022-09-06T14:00:11;1999.90;;;686.38;;
59024;SDS011;44806;48.008;13.666;2022-09-06T14:02:40;1993.60;;;665.10;;
59024;SDS011;44806;48.008;13.666;2022-09-06T14:05:08;1992.68;;;674.35;;
59024;SDS011;44806;48.008;13.666;2022-09-06T14:07:35;1999.90;;;599.45;;
59024;SDS011;44806;48.008;13.666;2022-09-06T14:10:03;1926.03;;;575.60;;
59024;SDS011;44806;48.008;13.666;2022-09-06T14:12:31;1999.90;;;611.50;;
59024;SDS011;44806;48.008;13.666;2022-09-06T14:15:00;1999.90;;;679.55;;
59024;SDS011;44806;48.008;13.666;2022-09-06T14:17:27;1999.90;;;661.85;;
59024;SDS011;44806;48.008;13.666;2022-09-06T14:19:57;1999.90;;;638.95;;
59024;SDS011;44806;48.008;13.666;2022-09-06T14:22:24;1990.68;;;607.65;;
59024;SDS011;44806;48.008;13.666;2022-09-06T14:24:52;1999.90;;;677.78;;
59024;SDS011;44806;48.008;13.666;2022-09-06T14:27:19;1989.07;;;596.47;;
59024;SDS011;44806;48.008;13.666;2022-09-06T14:29:47;1999.90;;;654.03;;
59024;SDS011;44806;48.008;13.666;2022-09-06T14:32:15;1933.78;;;599.53;;
59024;SDS011;44806;48.008;13.666;2022-09-06T14:34:44;1999.90;;;632.20;;
59024;SDS011;44806;48.008;13.666;2022-09-06T14:37:12;1999.90;;;687.20;;
59024;SDS011;44806;48.008;13.666;2022-09-06T14:39:39;1998.97;;;674.13;;
59024;SDS011;44806;48.008;13.666;2022-09-06T14:42:06;1999.90;;;679.17;;
59024;SDS011;44806;48.008;13.666;2022-09-06T14:44:34;1997.85;;;702.25;;